Flight Track Log - Related Links

Times and Time Zones

All times are in EDT time to prevent confusion due to time zone crossing. See the N789EX flight status page for this flight to view local times or setup timezone preferences in your user account.

Time Position Orientation Groundspeed Altitude Reporting Facility
EDT Latitude Longitude Course Direction KTS MPH feet Rate Location/Type
Thu 06:13:34 PM 47.2136 -119.3214 163° South 131 151 1,300  Level Seattle Center
Thu 06:14:35 PM 47.1742 -119.3042 163° South 145 167 3,400 2,697 Climbing Seattle Center
Thu 06:20:30 PM 47.3673 -119.8680 299° West 338 389 20,000 2,580 Climbing FlightAware ADS-B
Thu 06:21:01 PM 47.3921 -119.9340 299° West 382 440 20,000  Level FlightAware ADS-B
Thu 06:21:36 PM 47.4235 -120.0170 299° West 412 474 20,000  Level FlightAware ADS-B
Thu 06:22:07 PM 47.4526 -120.0950 299° West 414 476 20,000  Level FlightAware ADS-B
Thu 06:22:38 PM 47.4811 -120.1710 299° West 414 476 20,000  Level FlightAware ADS-B
Thu 06:23:18 PM 47.5169 -120.2677 299° West 414 476 20,000  Level FlightAware ADS-B
Thu 06:23:38 PM 47.5364 -120.3200 299° West 414 476 20,000  Level FlightAware ADS-B
Thu 06:23:50 PM 47.5421 -120.3357 299° West 416 479 20,000  Level FlightAware ADS-B
Thu 06:24:09 PM 47.5644 -120.3960 299° West 415 478 20,000  Level FlightAware ADS-B
Thu 06:24:26 PM 47.5778 -120.4323 299° West 415 478 20,000  Level FlightAware ADS-B
Thu 06:24:44 PM 47.5965 -120.4830 298° West 414 476 20,000  Level FlightAware ADS-B
Thu 06:24:57 PM 47.6060 -120.5091 299° West 416 479 20,000  Level FlightAware ADS-B
Thu 06:25:14 PM 47.6241 -120.5580 298° West 413 475 20,000  Level FlightAware ADS-B
Thu 06:25:27 PM 47.6348 -120.5871 298° West 414 476 20,000  Level FlightAware ADS-B
Thu 06:25:47 PM 47.6540 -120.6400 298° West 413 475 20,000  Level FlightAware ADS-B
Thu 06:25:59 PM 47.6616 -120.6607 298° West 414 476 20,000  Level FlightAware ADS-B
Thu 06:26:17 PM 47.6813 -120.7150 298° West 414 476 20,000  Level FlightAware ADS-B
Thu 06:26:30 PM 47.6913 -120.7419 298° West 413 475 20,000  Level FlightAware ADS-B
Thu 06:26:47 PM 47.7092 -120.7910 298° West 414 476 20,000  Level FlightAware ADS-B
Thu 06:27:01 PM 47.7027 -120.7733 298° West 413 475 20,000  Level FlightAware ADS-B
Thu 06:27:18 PM 47.7365 -120.8670 298° West 414 476 20,000 -255 Level FlightAware ADS-B
Thu 06:27:48 PM 47.7632 -120.9400 298° West 388 447 19,800 -1,100 Descending FlightAware ADS-B
Thu 06:28:18 PM 47.7884 -121.0100 298° West 378 435 18,900 -1,688 Descending FlightAware ADS-B
Thu 06:28:20 PM 47.7896 -121.0129 298° West 378 435 18,900 -2,129 Level FlightAware ADS-B
Thu 06:28:49 PM 47.8134 -121.0790 298° West 372 428 17,800 -2,118 Descending FlightAware ADS-B
Thu 06:28:54 PM 47.8134 -121.0792 298° West 372 428 17,700 -2,069 Descending FlightAware ADS-B
Thu 06:29:18 PM 47.8372 -121.1450 298° West 367 422 16,800 -2,063 Descending FlightAware ADS-B
Thu 06:29:26 PM 47.8425 -121.1620 294° West 363 418 16,600 -1,875 Descending FlightAware ADS-B
Thu 06:29:34 PM 47.8476 -121.1810 289° West 357 411 16,300 -2,000 Descending FlightAware ADS-B
Thu 06:29:44 PM 47.8522 -121.2040 285° West 355 409 16,000 -1,846 Descending FlightAware ADS-B
Thu 06:29:47 PM 47.8520 -121.2025 284° West 355 409 15,900 -2,400 Descending FlightAware ADS-B
Thu 06:29:59 PM 47.8570 -121.2400 278° West 355 409 15,400 -2,118 Descending FlightAware ADS-B
Thu 06:30:21 PM 47.8587 -121.2625 276° West 357 411 14,700 -2,200 Descending FlightAware ADS-B
Thu 06:30:29 PM 47.8620 -121.3130 275° West 356 410 14,300 -2,182 Descending FlightAware ADS-B
Thu 06:30:54 PM 47.8654 -121.3668 275° West 352 405 13,500 -2,200 Descending FlightAware ADS-B
Thu 06:30:59 PM 47.8666 -121.3860 275° West 350 403 13,200 -2,200 Descending FlightAware ADS-B
Thu 06:31:24 PM 47.8699 -121.4361 276° West 349 402 12,400 -1,935 Descending FlightAware ADS-B
Thu 06:31:30 PM 47.8713 -121.4590 276° West 348 400 12,200 -1,400 Descending FlightAware ADS-B
Thu 06:31:54 PM 47.8744 -121.5082 275° West 334 384 11,700 -1,286 Descending FlightAware ADS-B
Thu 06:31:58 PM 47.8755 -121.5260 276° West 330 380 11,600 -600 Descending FlightAware ADS-B
Thu 06:32:24 PM 47.8789 -121.5791 275° West 305 351 11,400 -600 Descending FlightAware ADS-B
Thu 06:32:28 PM 47.8796 -121.5900 275° West 297 342 11,300 -1,765 Descending FlightAware ADS-B
Thu 06:32:41 PM 47.8810 -121.6139 276° West 281 323 10,900 -1,935 Descending FlightAware ADS-B (CYVR)
Thu 06:32:59 PM 47.8832 -121.6480 275° West 267 307 10,300 -2,222 Descending FlightAware ADS-B
Thu 06:33:08 PM 47.8841 -121.6652 274° West 263 303 9,900 -2,400 Descending FlightAware ADS-B
Thu 06:33:09 PM 47.8842 -121.6670 273° West 262 302 9,900 -3,000 Level FlightAware ADS-B
Thu 06:33:18 PM 47.8836 -121.6840 263° West 257 296 9,400 -3,000 Descending FlightAware ADS-B
Thu 06:33:21 PM 47.8829 -121.6890 259° West 256 295 9,300 -3,600 Descending FlightAware ADS-B
Thu 06:33:23 PM 47.8843 -121.6702 255° West 254 292 9,100 -3,000 Descending FlightAware ADS-B
Thu 06:33:29 PM 47.8813 -121.6976 246° West 253 291 8,900 -1,800 Descending FlightAware ADS-B
Thu 06:33:33 PM 47.8785 -121.7070 247° West 252 290 8,800 -3,333 Descending FlightAware ADS-B
Thu 06:33:38 PM 47.8767 -121.7120 234° Southwest 251 289 8,400 -2,800 Descending FlightAware ADS-B
Thu 06:33:48 PM 47.8679 -121.7290 227° Southwest 251 289 8,100 -2,400 Descending FlightAware ADS-B
Thu 06:33:53 PM 47.8640 -121.7340 222° Southwest 251 289 7,800 -2,500 Descending FlightAware ADS-B
Thu 06:34:12 PM 47.8476 -121.7565 223° Southwest 264 304 7,100 -1,714 Descending FlightAware ADS-B
Thu 06:34:21 PM 47.8388 -121.7680 223° Southwest 263 303 7,000 -400 Descending FlightAware ADS-B
Thu 06:34:27 PM 47.8378 -121.7699 223° Southwest 256 295 7,000  Level FlightAware ADS-B
Thu 06:34:37 PM 47.8251 -121.7870 222° Southwest 257 296 7,000  Level FlightAware ADS-B
Thu 06:34:52 PM 47.8111 -121.8060 222° Southwest 258 297 7,000  Level FlightAware ADS-B
Thu 06:34:57 PM 47.8096 -121.8080 222° Southwest 258 297 7,000  Level FlightAware ADS-B
Thu 06:35:10 PM 47.7956 -121.8270 222° Southwest 258 297 7,000  Level FlightAware ADS-B
Thu 06:35:12 PM 47.8007 -121.8199 222° Southwest 258 297 7,000  Level FlightAware ADS-B
Thu 06:35:28 PM 47.7821 -121.8450 222° Southwest 256 295 7,000  Level FlightAware ADS-B
Thu 06:35:30 PM 47.7782 -121.8500 222° Southwest 256 295 7,000  Level FlightAware ADS-B
Thu 06:35:42 PM 47.7678 -121.8650 224° Southwest 257 296 7,000  Level FlightAware ADS-B
Thu 06:35:43 PM 47.7683 -121.8639 223° Southwest 257 296 7,000  Level FlightAware ADS-B
Thu 06:35:48 PM 47.7644 -121.8704 232° Southwest 256 295 7,000  Level FlightAware ADS-B
Thu 06:35:50 PM 47.7620 -121.8760 238° Southwest 255 293 7,000  Level FlightAware ADS-B
Thu 06:35:52 PM 47.7659 -121.8677 242° Southwest 255 293 7,000  Level FlightAware ADS-B
Thu 06:35:59 PM 47.7583 -121.8910 255° West 257 296 7,000  Level FlightAware ADS-B
Thu 06:36:03 PM 47.7580 -121.8932 260° West 259 298 7,000  Level FlightAware ADS-B
Thu 06:36:04 PM 47.7575 -121.8990 263° West 260 299 7,000  Level FlightAware ADS-B
Thu 06:36:08 PM 47.7572 -121.9056 267° West 261 300 7,000  Level FlightAware ADS-B
Thu 06:36:23 PM 47.7570 -121.9340 270° West 262 302 7,000  Level FlightAware ADS-B
Thu 06:36:28 PM 47.7570 -121.9419 270° West 262 302 7,000  Level FlightAware ADS-B
Thu 06:36:39 PM 47.7570 -121.9610 270° West 261 300 7,000  Level FlightAware ADS-B
Thu 06:36:44 PM 47.7569 -121.9674 270° West 261 300 7,000  Level FlightAware ADS-B
Thu 06:36:54 PM 47.7569 -121.9890 270° West 260 299 7,000  Level FlightAware ADS-B
Thu 06:36:59 PM 47.7568 -121.9952 270° West 260 299 7,000  Level FlightAware ADS-B
Thu 06:37:09 PM 47.7567 -122.0170 269° West 262 302 7,000  Level FlightAware ADS-B
Thu 06:37:15 PM 47.7567 -122.0225 269° West 262 302 7,000 -375 Level FlightAware ADS-B
Thu 06:37:25 PM 47.7564 -122.0450 269° West 263 303 6,900 -947 Descending FlightAware ADS-B
Thu 06:37:34 PM 47.7562 -122.0538 269° West 263 303 6,700 -1,200 Descending FlightAware ADS-B
Thu 06:37:40 PM 47.7560 -122.0720 269° West 263 303 6,600 -1,412 Descending FlightAware ADS-B
Thu 06:37:51 PM 47.7559 -122.0755 269° West 260 299 6,300 -1,200 Descending FlightAware ADS-B
Thu 06:37:55 PM 47.7556 -122.0990 269° West 260 299 6,300 -706 Level FlightAware ADS-B
Thu 06:38:08 PM 47.7554 -122.1210 270° West 258 297 6,100 -1,250 Descending FlightAware ADS-B
Thu 06:38:19 PM 47.7554 -122.1416 270° West 256 295 5,800 -1,200 Descending FlightAware ADS-B
Thu 06:38:23 PM 47.7554 -122.1480 270° West 255 293 5,800 -947 Level FlightAware ADS-B
Thu 06:38:38 PM 47.7555 -122.1750 270° West 251 289 5,500 -1,241 Descending FlightAware ADS-B
Thu 06:38:52 PM 47.7555 -122.1933 270° West 246 283 5,200 -1,500 Descending FlightAware ADS-B
Thu 06:38:54 PM 47.7555 -122.2010 270° West 246 283 5,100 -2,471 Descending FlightAware ADS-B
Thu 06:39:09 PM 47.7554 -122.2270 270° West 247 284 4,500 -2,333 Descending FlightAware ADS-B
Thu 06:39:12 PM 47.7554 -122.2315 270° West 247 284 4,400 -1,667 Descending FlightAware ADS-B
Thu 06:39:27 PM 47.7554 -122.2570 270° West 245 282 4,000 -1,200 Descending FlightAware ADS-B
Thu 06:39:32 PM 47.7554 -122.2566 271° West 242 278 4,000 -750 Level FlightAware ADS-B
Thu 06:39:43 PM 47.7555 -122.2830 270° West 235 270 3,800 -923 Descending FlightAware ADS-B
Thu 06:39:58 PM 47.7556 -122.3080 270° West 232 267 3,600 -857 Descending FlightAware ADS-B
Thu 06:40:04 PM 47.7556 -122.3168 270° West 231 266 3,500 -800 Descending FlightAware ADS-B
Thu 06:40:13 PM 47.7555 -122.3310 268° West 229 264 3,400 -857 Descending FlightAware ADS-B
Thu 06:40:18 PM 47.7550 -122.3390 262° West 226 260 3,300 -1,200 Descending FlightAware ADS-B
Thu 06:40:23 PM 47.7536 -122.3460 252° West 224 258 3,200 -2,000 Descending FlightAware ADS-B
Thu 06:40:24 PM 47.7533 -122.3479 251° West 223 257 3,100 -1,200 Descending FlightAware ADS-B
Thu 06:40:28 PM 47.7517 -122.3530 247° West 222 255 3,100 -857 Level FlightAware ADS-B
Thu 06:40:31 PM 47.7502 -122.3580 244° Southwest 221 254 3,000 -1,385 Descending FlightAware ADS-B
Thu 06:40:41 PM 47.7459 -122.3699 241° Southwest 219 252 2,800 -900 Descending FlightAware ADS-B
Thu 06:40:51 PM 47.7404 -122.3840 240° Southwest 219 252 2,700 -2,118 Descending FlightAware ADS-B
Thu 06:40:58 PM 47.7368 -122.3935 240° Southwest 217 250 2,200 -600 Descending FlightAware ADS-B
Thu 06:41:41 PM 47.7104 -122.4390 201° Southwest 200 230 2,200  Level FlightAware ADS-B
Thu 06:42:16 PM 47.6806 -122.4306 152° Southeast 186 214 2,200  Level FlightAware ADS-B
Thu 06:42:37 PM 47.6655 -122.4180 150° Southeast 178 205 2,200  Level FlightAware ADS-B
Thu 06:42:52 PM 47.6546 -122.4080 150° Southeast 174 200 2,200  Level FlightAware ADS-B
Thu 06:43:04 PM 47.6462 -122.4011 150° Southeast 177 204 2,200  Level FlightAware ADS-B
Thu 06:43:08 PM 47.6436 -122.3990 150° Southeast 176 203 2,200 -600 Level FlightAware ADS-B
Thu 06:43:24 PM 47.6321 -122.3890 150° Southeast 177 204 2,000 -581 Descending FlightAware ADS-B
Thu 06:43:39 PM 47.6214 -122.3800 150° Southeast 172 198 1,900 -600 Descending FlightAware ADS-B
Thu 06:43:44 PM 47.6196 -122.3783 150° Southeast 169 194 1,800 -1,143 Descending FlightAware ADS-B
Thu 06:44:00 PM 47.6074 -122.3680 150° Southeast 166 191 1,500 -1,125 Descending FlightAware ADS-B
Thu 06:44:16 PM 47.5990 -122.3608 150° Southeast 152 175 1,200 -676 Descending FlightAware ADS-B
Thu 06:45:11 PM 47.5681 -122.3353 150° Southeast 148 170 700 -571 Descending Seattle Center
Thu 06:45:40 PM 47.5514 -122.3217 151° Southeast 141 162 400 -581 Descending Seattle Center
Thu 06:46:13 PM 47.5358 -122.3053 145° Southeast 145 167 100 -545 Descending Seattle Center
Thu 06:48:00 PM 47.5300 -122.3020 152° Southeast  Level Estimated

Login

Don't have an account? Register now (free) for customized features, flight alerts, and more!